x

East Dellwood (46207) Wave Buoy

7:00pm - Fri 28th Aug 2015 All times are PDT. -7 hours from GMT.

  • Sig Wave height 9.8ft
  • Peak Period 7s
  • Wind
    27mph, 34mph gusts
  • Sea Temp 63°f
  • Air Temp 63°f
  • Sea Pressure 1002mb
  • East Dellwood
  • East Dellwood

More Historic Weather Station data

Upgrade to MSW Pro to gain access to the past 30 days of data for over 8000 Wavebouys and Weather Stations around the globe.

Join Pro

Comparision Forecast

View Surf forecast
   
Fri 08/28 7:00pm 10ft 7s 27 34 mph 1002mb 63f 63f
6:00pm 9ft 7s 25 34 mph 1002.7mb 63f 64f
5:00pm 9ft 7s 25 29 mph 1003.8mb 62f 63f
4:00pm 8ft 7s 27 34 mph 1004.3mb 62f 63f
3:00pm 7.5ft 6s 27 31 mph 1004.8mb 62f 64f
2:00pm 7ft 6s 25 31 mph 1005.1mb 62f 64f
12:00pm 6.5ft 16s 25 29 mph 1005.6mb 62f 64f
11:00am 5.5ft 5s 22 27 mph 1005.6mb 62f 63f
10:00am 5ft 15s 22 27 mph 1005.9mb 62f 63f
9:00am 5ft 15s 20 27 mph 1006.3mb 62f 63f
8:00am 5ft 14s 20 25 mph 1006.7mb 62f 63f
7:00am 4.5ft 15s 18 22 mph 1006.9mb 62f 63f
6:00am 4.5ft 16s 16 20 mph 1007.4mb 62f 62f
5:00am 4.5ft 16s 16 18 mph 1007.9mb 63f 63f
4:00am 3.5ft 15s 13 16 mph 1008.7mb 63f 63f
3:00am 4ft 14s 11 13 mph 1009.2mb 63f 63f
2:00am 4ft 15s 9 11 mph 1009.7mb 63f 63f
1:00am 4ft 14s 7
mph
1010.2mb 63f 63f
12:00am 4.5ft 14s 4 7 mph 1010.6mb 63f 63f
Thu 08/27 11:00pm 4.5ft 14s 4 9 mph 1011.6mb 63f 63f
10:00pm 4.5ft 14s 9 11 mph 1012.2mb 63f 62f
9:00pm 4.5ft 14s 9 13 mph 1012.6mb 63f 63f
8:00pm 4.5ft 15s 11 13 mph 1013mb 63f 64f
7:00pm 5ft 15s 11 13 mph 1013.6mb 63f 64f
6:00pm 4.5ft 14s 13 16 mph 1013.9mb 63f 64f
5:00pm 5ft 6s 16 18 mph 1014.5mb 63f 63f
4:00pm 5ft 17s 18 22 mph 1015.1mb 63f 63f
3:00pm 4.5ft 14s 18 22 mph 1015.5mb 63f 63f
2:00pm 4.5ft 14s 16 18 mph 1016.1mb 63f 63f
1:00pm 4.5ft 14s 11 16 mph 1016.8mb 63f 63f
12:00pm 4ft 14s 13
mph
1016.8mb 63f 62f
11:00am 4.5ft 16s 13 16 mph 1017mb 63f 61f
10:00am 4ft 14s 16 20 mph 1016.8mb 63f 61f
9:00am 4ft 16s 13 18 mph 1016.7mb 63f 62f
8:00am 4ft 14s 11 13 mph 1017mb 63f 62f
7:00am 4ft 14s 9 11 mph 1017.2mb 63f 61f
6:00am 4ft 6s 7 9 mph 1017mb 63f 60f
5:00am 4ft 15s 2 4 mph 1017.3mb 63f 59f
4:00am 4ft 15s 4 7 mph 1017mb 63f 59f
3:00am 4ft 14s 4 7 mph 1016.8mb 63f 60f
2:00am 3.5ft 16s 4 7 mph 1016.6mb 63f 61f
1:00am 4ft 15s 4 9 mph 1016.7mb 63f 62f
12:00am 3.5ft 14s 7 9 mph 1016.7mb 64f 62f
Wed 08/26 11:00pm 3.5ft 16s 7 9 mph 1016.9mb 64f 62f
10:00pm 3.5ft 16s 9
mph
1016.8mb 64f 62f
9:00pm 3.5ft 14s 9
mph
1016.7mb 64f 62f
8:00pm 3.5ft 15s 7
mph
1016.8mb 64f 62f
7:00pm 3.5ft 15s 4 7 mph 1017.1mb 64f 62f
6:00pm 3.5ft 16s 4 7 mph 1017.1mb 64f 62f
5:00pm 3.5ft 15s 4 7 mph 1017.1mb 64f 62f
4:00pm 3.5ft 16s 7 9 mph 1017.2mb 64f 62f
3:00pm 3.5ft 14s 9
mph
1017.3mb 64f 62f
2:00pm 3.5ft 14s 9 11 mph 1017.1mb 63f 62f
1:00pm 4ft 14s 11
mph
1016.9mb 63f 62f
12:00pm 4.5ft 15s 11 13 mph 1017mb 63f 62f
11:00am 4ft 16s 11 13 mph 1016.7mb 63f 62f
10:00am 4.5ft 15s 13 16 mph 1016.7mb 63f 61f
9:00am 4.5ft 17s 13 16 mph 1016.7mb 63f 61f
8:00am 4.5ft 14s 13 16 mph 1016.4mb 63f 61f
7:00am 4.5ft 14s 13 16 mph 1016.1mb 63f 61f
6:00am 4.5ft 15s 16 18 mph 1015.9mb 63f 61f
5:00am 4.5ft 6s 13 16 mph 1015.9mb 62f 61f
4:00am 4.5ft 6s 13 16 mph 1016mb 62f 61f
3:00am 5ft 6s 13 16 mph 1015.9mb 62f 62f
2:00am 5ft 9s 13 16 mph 1016mb 62f 62f
1:00am 5ft 10s 9 11 mph 1016.1mb 62f 62f
12:00am 5.5ft 10s 11 13 mph 1015.9mb 62f 62f
Tue 08/25 11:00pm 5ft 6s 11 13 mph 1015.9mb 62f 62f
10:00pm 6ft 6s 13 16 mph 1016mb 62f 61f
9:00pm 5.5ft 7s 16 18 mph 1015.7mb 62f 61f
8:00pm 6ft 7s 11 13 mph 1015.7mb 62f 62f
7:00pm 6ft 7s 11 13 mph 1015.6mb 62f 62f
6:00pm 6ft 7s 9 11 mph 1015.7mb 62f 63f
5:00pm 6ft 7s 11 13 mph 1015.8mb 62f 63f
4:00pm 6ft 7s 11 13 mph 1015.5mb 62f 63f
3:00pm 7.5ft 7s 7 11 mph 1015mb 62f 62f
2:00pm 8ft 7s 18 22 mph 1014.6mb 62f 60f
1:00pm 8ft 6s 25 31 mph 1014.1mb 62f 59f
12:00pm 7ft 6s 25 31 mph 1014.1mb 62f 59f
11:00am 7ft 6s 25 29 mph 1014.1mb 62f 60f
10:00am 6.5ft 6s 25 34 mph 1014.2mb 62f 59f
9:00am 6.5ft 10s 22 27 mph 1014.5mb 62f 60f
8:00am 6ft 10s 20 25 mph 1014.7mb 62f 60f
7:00am 6ft 10s 18 25 mph 1014.7mb 62f 60f
6:00am 5.5ft 10s 22 27 mph 1014.5mb 62f 60f
5:00am 5.5ft 10s 20 27 mph 1014.5mb 62f 61f
4:00am 5.5ft 10s 16 20 mph 1014.6mb 62f 62f